Wetterdaten: Woche 09.08.04 - 15.08.04 (KW33)
Datum Zeit Temperatur Luftfeuchte Luftdruck Niederschlag Taupunkt Windchill Wind
09.08.2004 01:00 16,5 C 76 % 1014 hPa 0,0 l/m 12,3 C 16,5 C 0,0 km/h (0 Bft)
09.08.2004 02:00 16,0 C 79 % 1014 hPa 0,0 l/m 12,3 C 16,0 C 0,0 km/h (0 Bft)
09.08.2004 03:00 15,3 C 82 % 1014 hPa 0,0 l/m 12,2 C 15,3 C 0,0 km/h (0 Bft)
09.08.2004 04:00 14,8 C 84 % 1014 hPa 0,0 l/m 12,1 C 14,8 C 0,0 km/h (0 Bft)
09.08.2004 05:00 14,5 C 86 % 1014 hPa 0,0 l/m 12,2 C 14,4 C 0,6 km/h (0 Bft)
09.08.2004 06:00 14,3 C 88 % 1014 hPa 0,0 l/m 12,3 C 14,3 C 0,0 km/h (0 Bft)
09.08.2004 07:00 15,0 C 87 % 1014 hPa 0,0 l/m 12,9 C 15,0 C 0,0 km/h (0 Bft)
09.08.2004 08:00 16,6 C 81 % 1014 hPa 0,0 l/m 13,4 C 16,6 C 0,0 km/h (0 Bft)
09.08.2004 09:00 19,4 C 73 % 1014 hPa 0,0 l/m 14,4 C 19,4 C 0,0 km/h (0 Bft)
09.08.2004 10:00 23,2 C 59 % 1014 hPa 0,0 l/m 14,7 C 23,2 C 0,0 km/h (0 Bft)
09.08.2004 11:00 25,7 C 45 % 1014 hPa 0,0 l/m 12,7 C 25,7 C 0,0 km/h (0 Bft)
09.08.2004 12:00 27,2 C 39 % 1015 hPa 0,0 l/m 12,1 C 27,2 C 0,3 km/h (0 Bft)
09.08.2004 13:00 28,4 C 35 % 1015 hPa 0,0 l/m 11,6 C 28,0 C 7,2 km/h (2 Bft)
09.08.2004 14:00 29,6 C 32 % 1015 hPa 0,0 l/m 11,3 C 29,3 C 7,5 km/h (2 Bft)
09.08.2004 15:00 30,3 C 30 % 1015 hPa 0,0 l/m 10,9 C 30,2 C 1,6 km/h (1 Bft)
09.08.2004 16:00 30,4 C 30 % 1015 hPa 0,0 l/m 10,7 C 30,0 C 14,0 km/h (3 Bft)
09.08.2004 17:00 30,3 C 30 % 1015 hPa 0,0 l/m 10,8 C 29,8 C 16,3 km/h (3 Bft)
09.08.2004 18:00 29,9 C 30 % 1015 hPa 0,0 l/m 10,4 C 29,3 C 15,2 km/h (3 Bft)
09.08.2004 19:00 27,3 C 34 % 1015 hPa 0,0 l/m 10,1 C 26,5 C 13,4 km/h (3 Bft)
09.08.2004 20:00 24,6 C 42 % 1015 hPa 0,0 l/m 10,9 C 24,5 C 5,8 km/h (2 Bft)
09.08.2004 21:00 22,1 C 52 % 1016 hPa 0,0 l/m 11,8 C 22,1 C 1,0 km/h (0 Bft)
09.08.2004 22:00 19,6 C 63 % 1016 hPa 0,0 l/m 12,4 C 19,6 C 0,5 km/h (0 Bft)
09.08.2004 23:00 18,3 C 67 % 1016 hPa 0,0 l/m 12,1 C 18,3 C 2,4 km/h (1 Bft)
10.08.2004 00:00 18,7 C 65 % 1016 hPa 0,0 l/m 12,0 C 17,7 C 9,8 km/h (2 Bft)
10.08.2004 01:00 17,9 C 68 % 1016 hPa 0,0 l/m 12,0 C 17,8 C 2,3 km/h (1 Bft)
10.08.2004 02:00 16,9 C 73 % 1015 hPa 0,0 l/m 12,1 C 16,4 C 8,8 km/h (2 Bft)
10.08.2004 03:00 16,9 C 74 % 1015 hPa 0,0 l/m 12,2 C 15,8 C 10,6 km/h (2 Bft)
10.08.2004 04:00 16,0 C 77 % 1015 hPa 0,0 l/m 11,9 C 14,9 C 9,6 km/h (2 Bft)
10.08.2004 05:00 15,2 C 80 % 1014 hPa 0,0 l/m 11,6 C 13,9 C 10,5 km/h (2 Bft)
10.08.2004 06:00 14,4 C 83 % 1015 hPa 0,0 l/m 11,5 C 13,1 C 9,8 km/h (2 Bft)
10.08.2004 07:00 15,0 C 83 % 1015 hPa 0,0 l/m 12,1 C 13,5 C 11,5 km/h (2 Bft)
10.08.2004 08:00 16,8 C 76 % 1015 hPa 0,0 l/m 12,6 C 15,0 C 12,7 km/h (3 Bft)
10.08.2004 09:00 18,8 C 70 % 1015 hPa 0,0 l/m 13,2 C 16,7 C 15,0 km/h (3 Bft)
10.08.2004 10:00 21,2 C 63 % 1015 hPa 0,0 l/m 13,9 C 20,4 C 11,2 km/h (2 Bft)
10.08.2004 11:00 23,0 C 56 % 1015 hPa 0,0 l/m 13,7 C 22,1 C 11,1 km/h (2 Bft)
10.08.2004 12:00 25,2 C 50 % 1016 hPa 0,0 l/m 14,0 C 24,4 C 11,1 km/h (2 Bft)
10.08.2004 13:00 27,2 C 45 % 1016 hPa 0,0 l/m 14,1 C 27,0 C 7,0 km/h (2 Bft)
10.08.2004 14:00 28,3 C 43 % 1015 hPa 0,0 l/m 14,5 C 28,0 C 9,3 km/h (2 Bft)
10.08.2004 15:00 28,8 C 41 % 1015 hPa 0,0 l/m 14,3 C 28,4 C 10,8 km/h (2 Bft)
10.08.2004 16:00 29,6 C 40 % 1015 hPa 0,0 l/m 14,4 C 29,3 C 10,9 km/h (2 Bft)
10.08.2004 17:00 29,1 C 39 % 1015 hPa 0,0 l/m 13,9 C 28,7 C 11,8 km/h (2 Bft)
10.08.2004 18:00 27,6 C 42 % 1014 hPa 0,0 l/m 13,5 C 27,1 C 10,9 km/h (2 Bft)
10.08.2004 19:00 26,8 C 45 % 1014 hPa 0,0 l/m 13,7 C 26,6 C 8,1 km/h (2 Bft)
10.08.2004 20:00 24,7 C 54 % 1015 hPa 0,0 l/m 14,8 C 24,7 C 0,8 km/h (0 Bft)
10.08.2004 21:00 22,6 C 60 % 1015 hPa 0,0 l/m 14,5 C 22,6 C 0,0 km/h (0 Bft)
10.08.2004 22:00 22,1 C 62 % 1015 hPa 0,0 l/m 14,5 C 22,1 C 1,0 km/h (0 Bft)
10.08.2004 23:00 21,5 C 63 % 1015 hPa 0,0 l/m 14,2 C 21,5 C 0,0 km/h (0 Bft)
11.08.2004 00:00 21,0 C 64 % 1015 hPa 0,0 l/m 13,9 C 21,0 C 0,9 km/h (0 Bft)
11.08.2004 01:00 20,6 C 66 % 1015 hPa 0,0 l/m 14,0 C 20,4 C 5,8 km/h (2 Bft)
11.08.2004 02:00 20,2 C 66 % 1015 hPa 0,0 l/m 13,6 C 19,6 C 8,2 km/h (2 Bft)
11.08.2004 03:00 19,4 C 73 % 1016 hPa 0,0 l/m 14,4 C 17,7 C 12,9 km/h (3 Bft)
11.08.2004 04:00 17,7 C 90 % 1016 hPa 0,0 l/m 16,0 C 17,2 C 5,5 km/h (1 Bft)
11.08.2004 05:00 17,3 C 93 % 1016 hPa 0,0 l/m 16,2 C 17,3 C 0,7 km/h (0 Bft)
11.08.2004 06:00 17,1 C 94 % 1016 hPa 0,0 l/m 16,2 C 17,1 C 0,0 km/h (0 Bft)
11.08.2004 07:00 17,3 C 95 % 1016 hPa 0,0 l/m 16,6 C 17,3 C 0,4 km/h (0 Bft)
11.08.2004 08:00 17,9 C 96 % 1016 hPa 0,0 l/m 17,2 C 17,9 C 0,0 km/h (0 Bft)
11.08.2004 09:00 18,9 C 93 % 1016 hPa 0,0 l/m 17,8 C 18,9 C 2,2 km/h (1 Bft)
11.08.2004 10:00 20,1 C 86 % 1017 hPa 0,0 l/m 17,7 C 19,8 C 7,2 km/h (2 Bft)
11.08.2004 11:00 21,5 C 78 % 1017 hPa 0,0 l/m 17,4 C 21,1 C 7,5 km/h (2 Bft)
11.08.2004 12:00 22,9 C 67 % 1017 hPa 0,0 l/m 16,5 C 22,4 C 8,5 km/h (2 Bft)
11.08.2004 13:00 24,2 C 59 % 1017 hPa 0,0 l/m 15,7 C 23,8 C 7,7 km/h (2 Bft)
11.08.2004 14:00 25,8 C 53 % 1017 hPa 0,0 l/m 15,4 C 25,5 C 7,6 km/h (2 Bft)
11.08.2004 15:00 26,2 C 52 % 1016 hPa 0,0 l/m 15,4 C 25,9 C 6,7 km/h (2 Bft)
11.08.2004 16:00 26,3 C 50 % 1016 hPa 0,0 l/m 14,9 C 26,0 C 8,0 km/h (2 Bft)
11.08.2004 17:00 25,3 C 56 % 1016 hPa 0,0 l/m 15,9 C 24,6 C 11,8 km/h (2 Bft)
11.08.2004 18:00 24,2 C 62 % 1016 hPa 0,0 l/m 16,5 C 23,4 C 11,8 km/h (2 Bft)
11.08.2004 19:00 24,6 C 60 % 1016 hPa 0,0 l/m 16,3 C 24,2 C 8,4 km/h (2 Bft)
11.08.2004 20:00 23,0 C 67 % 1016 hPa 0,0 l/m 16,5 C 23,0 C 0,5 km/h (0 Bft)
11.08.2004 21:00 20,8 C 76 % 1016 hPa 0,0 l/m 16,5 C 20,8 C 0,5 km/h (0 Bft)
11.08.2004 22:00 19,7 C 82 % 1016 hPa 0,0 l/m 16,4 C 19,7 C 0,0 km/h (0 Bft)
11.08.2004 23:00 18,8 C 86 % 1017 hPa 0,0 l/m 16,3 C 18,8 C 0,0 km/h (0 Bft)
12.08.2004 00:00 18,4 C 88 % 1016 hPa 0,0 l/m 16,4 C 18,4 C 0,0 km/h (0 Bft)
12.08.2004 13:00 30,4 C 42 % 1016 hPa 0,0 l/m 15,9 C 30,1 C 8,1 km/h (2 Bft)
12.08.2004 14:00 30,7 C 37 % 1011 hPa 0,0 l/m 14,3 C 30,5 C 9,6 km/h (2 Bft)
12.08.2004 15:00 31,4 C 32 % 1010 hPa 0,0 l/m 12,7 C 31,3 C 9,4 km/h (2 Bft)
12.08.2004 16:00 31,2 C 33 % 1009 hPa 0,0 l/m 12,7 C 31,1 C 8,2 km/h (2 Bft)
12.08.2004 17:00 28,5 C 44 % 1008 hPa 0,0 l/m 14,9 C 28,4 C 4,6 km/h (1 Bft)
12.08.2004 18:00 21,8 C 77 % 1011 hPa 31,0 l/m 17,1 C 18,3 C 27,8 km/h (4 Bft)
12.08.2004 19:00 16,0 C 90 % 1014 hPa 3,0 l/m 14,4 C 10,7 C 28,9 km/h (5 Bft)
12.08.2004 20:00 14,9 C 88 % 1015 hPa 0,0 l/m 13,0 C 12,3 C 14,1 km/h (3 Bft)
12.08.2004 21:00 14,5 C 93 % 1016 hPa 0,0 l/m 13,4 C 11,6 C 14,0 km/h (3 Bft)
12.08.2004 22:00 14,3 C 93 % 1016 hPa 0,0 l/m 13,2 C 12,3 C 10,4 km/h (2 Bft)
12.08.2004 23:00 14,3 C 96 % 1017 hPa 0,0 l/m 13,6 C 12,0 C 12,7 km/h (3 Bft)
13.08.2004 00:00 14,2 C 98 % 1017 hPa 0,0 l/m 13,8 C 13,4 C 9,5 km/h (2 Bft)
13.08.2004 01:00 14,4 C 95 % 1017 hPa 0,0 l/m 13,5 C 12,8 C 11,4 km/h (2 Bft)
13.08.2004 02:00 14,1 C 91 % 1016 hPa 0,0 l/m 12,7 C 13,0 C 9,9 km/h (2 Bft)
13.08.2004 03:00 13,3 C 94 % 1016 hPa 0,0 l/m 12,4 C 12,8 C 8,2 km/h (2 Bft)
13.08.2004 04:00 12,8 C 97 % 1016 hPa 0,0 l/m 12,4 C 12,6 C 5,7 km/h (1 Bft)
13.08.2004 05:00 13,0 C 98 % 1016 hPa 0,0 l/m 12,7 C 12,4 C 8,0 km/h (2 Bft)
13.08.2004 06:00 12,7 C 98 % 1015 hPa 0,0 l/m 12,4 C 12,2 C 8,7 km/h (2 Bft)
13.08.2004 07:00 14,0 C 96 % 1015 hPa 0,0 l/m 13,3 C 12,2 C 12,1 km/h (2 Bft)
13.08.2004 08:00 15,5 C 88 % 1015 hPa 0,0 l/m 13,5 C 13,0 C 15,5 km/h (3 Bft)
13.08.2004 09:00 16,6 C 76 % 1015 hPa 0,0 l/m 12,3 C 13,2 C 19,9 km/h (4 Bft)
13.08.2004 10:00 16,8 C 75 % 1015 hPa 0,0 l/m 12,3 C 13,8 C 18,0 km/h (3 Bft)
13.08.2004 11:00 18,0 C 69 % 1015 hPa 0,0 l/m 12,1 C 14,7 C 18,8 km/h (3 Bft)
13.08.2004 12:00 19,1 C 64 % 1015 hPa 0,0 l/m 12,0 C 15,6 C 23,2 km/h (4 Bft)
13.08.2004 13:00 19,3 C 58 % 1015 hPa 0,0 l/m 10,8 C 15,5 C 25,2 km/h (4 Bft)
13.08.2004 14:00 19,6 C 57 % 1015 hPa 0,0 l/m 10,8 C 16,5 C 20,9 km/h (4 Bft)
13.08.2004 15:00 19,7 C 60 % 1015 hPa 1,0 l/m 11,7 C 17,3 C 16,6 km/h (3 Bft)
13.08.2004 16:00 19,7 C 61 % 1015 hPa 0,0 l/m 12,0 C 17,2 C 16,4 km/h (3 Bft)
13.08.2004 17:00 19,3 C 61 % 1015 hPa 0,0 l/m 11,5 C 16,5 C 18,8 km/h (3 Bft)
13.08.2004 18:00 18,1 C 68 % 1015 hPa 0,0 l/m 12,1 C 15,9 C 14,4 km/h (3 Bft)
13.08.2004 19:00 17,5 C 66 % 1016 hPa 0,0 l/m 11,1 C 14,5 C 16,8 km/h (3 Bft)
13.08.2004 20:00 16,9 C 66 % 1016 hPa 0,0 l/m 10,5 C 14,9 C 13,2 km/h (3 Bft)
13.08.2004 21:00 16,1 C 72 % 1017 hPa 0,0 l/m 11,0 C 14,9 C 10,1 km/h (2 Bft)
13.08.2004 22:00 15,2 C 75 % 1017 hPa 0,0 l/m 10,8 C 14,0 C 9,3 km/h (2 Bft)
13.08.2004 23:00 14,3 C 81 % 1018 hPa 0,0 l/m 11,1 C 12,7 C 11,0 km/h (2 Bft)
14.08.2004 00:00 13,8 C 81 % 1018 hPa 0,0 l/m 10,5 C 12,2 C 10,4 km/h (2 Bft)
14.08.2004 01:00 13,5 C 85 % 1018 hPa 0,0 l/m 11,0 C 12,5 C 9,2 km/h (2 Bft)
14.08.2004 02:00 13,3 C 93 % 1018 hPa 0,0 l/m 12,2 C 12,3 C 9,8 km/h (2 Bft)
14.08.2004 03:00 13,2 C 92 % 1018 hPa 0,0 l/m 11,9 C 11,9 C 9,9 km/h (2 Bft)
14.08.2004 04:00 12,9 C 92 % 1018 hPa 0,0 l/m 11,7 C 11,9 C 9,6 km/h (2 Bft)
14.08.2004 05:00 12,8 C 94 % 1018 hPa 0,0 l/m 12,0 C 12,2 C 8,3 km/h (2 Bft)
14.08.2004 06:00 13,3 C 94 % 1018 hPa 0,0 l/m 12,4 C 11,0 C 12,6 km/h (3 Bft)
14.08.2004 07:00 13,8 C 91 % 1018 hPa 0,0 l/m 12,4 C 12,3 C 10,8 km/h (2 Bft)
14.08.2004 08:00 14,0 C 93 % 1018 hPa 1,0 l/m 12,9 C 11,9 C 11,9 km/h (2 Bft)
14.08.2004 09:00 14,1 C 94 % 1019 hPa 1,0 l/m 13,2 C 11,7 C 12,9 km/h (3 Bft)
14.08.2004 10:00 14,5 C 89 % 1019 hPa 0,0 l/m 12,6 C 10,6 C 18,1 km/h (3 Bft)
14.08.2004 11:00 14,8 C 83 % 1019 hPa 0,0 l/m 11,9 C 10,7 C 19,4 km/h (3 Bft)
14.08.2004 12:00 15,4 C 78 % 1020 hPa 0,0 l/m 11,5 C 11,0 C 20,2 km/h (4 Bft)
14.08.2004 13:00 16,7 C 68 % 1020 hPa 0,0 l/m 10,8 C 11,6 C 26,4 km/h (4 Bft)
14.08.2004 14:00 16,7 C 67 % 1021 hPa 0,0 l/m 10,6 C 12,0 C 25,0 km/h (4 Bft)
14.08.2004 15:00 16,6 C 69 % 1021 hPa 0,0 l/m 11,0 C 13,1 C 18,9 km/h (3 Bft)
14.08.2004 16:00 16,7 C 69 % 1021 hPa 0,0 l/m 11,1 C 12,7 C 21,1 km/h (4 Bft)
14.08.2004 17:00 16,6 C 71 % 1022 hPa 0,0 l/m 11,3 C 12,7 C 19,3 km/h (3 Bft)
14.08.2004 18:00 15,7 C 79 % 1022 hPa 0,0 l/m 12,1 C 12,6 C 16,2 km/h (3 Bft)
14.08.2004 19:00 15,4 C 82 % 1023 hPa 0,0 l/m 12,2 C 12,6 C 14,2 km/h (3 Bft)
14.08.2004 20:00 15,2 C 82 % 1023 hPa 0,0 l/m 12,2 C 13,3 C 11,7 km/h (2 Bft)
14.08.2004 21:00 15,1 C 83 % 1024 hPa 0,0 l/m 12,2 C 14,5 C 8,7 km/h (2 Bft)
14.08.2004 22:00 14,9 C 88 % 1024 hPa 0,0 l/m 12,8 C 14,5 C 5,3 km/h (1 Bft)
14.08.2004 23:00 14,4 C 93 % 1025 hPa 0,0 l/m 13,3 C 14,1 C 6,3 km/h (2 Bft)
15.08.2004 00:00 14,4 C 93 % 1025 hPa 0,0 l/m 13,3 C 13,7 C 7,6 km/h (2 Bft)
15.08.2004 01:00 14,4 C 94 % 1025 hPa 0,0 l/m 13,4 C 14,3 C 4,7 km/h (1 Bft)
15.08.2004 02:00 14,3 C 94 % 1025 hPa 0,0 l/m 13,4 C 14,3 C 1,6 km/h (1 Bft)
15.08.2004 03:00 14,5 C 94 % 1025 hPa 3,0 l/m 13,4 C 14,4 C 2,0 km/h (1 Bft)
15.08.2004 04:00 14,3 C 95 % 1025 hPa 0,0 l/m 13,5 C 14,3 C 0,7 km/h (0 Bft)
15.08.2004 05:00 14,0 C 97 % 1025 hPa 0,0 l/m 13,6 C 14,0 C 0,0 km/h (0 Bft)
15.08.2004 06:00 13,9 C 98 % 1025 hPa 0,0 l/m 13,6 C 13,9 C 1,2 km/h (1 Bft)
15.08.2004 07:00 14,2 C 98 % 1025 hPa 0,0 l/m 13,9 C 14,2 C 1,5 km/h (1 Bft)
15.08.2004 08:00 14,9 C 98 % 1025 hPa 0,0 l/m 14,6 C 14,8 C 3,6 km/h (1 Bft)
15.08.2004 09:00 16,3 C 95 % 1025 hPa 0,0 l/m 15,5 C 15,2 C 9,7 km/h (2 Bft)
15.08.2004 10:00 18,9 C 76 % 1025 hPa 0,0 l/m 14,4 C 17,6 C 11,1 km/h (2 Bft)
15.08.2004 11:00 20,5 C 64 % 1025 hPa 0,0 l/m 13,5 C 19,4 C 9,8 km/h (2 Bft)
15.08.2004 12:00 21,6 C 56 % 1025 hPa 0,0 l/m 12,3 C 21,0 C 8,9 km/h (2 Bft)
15.08.2004 13:00 23,1 C 48 % 1024 hPa 0,0 l/m 11,5 C 22,5 C 8,9 km/h (2 Bft)
15.08.2004 14:00 24,3 C 42 % 1024 hPa 0,0 l/m 10,6 C 23,7 C 8,2 km/h (2 Bft)
15.08.2004 15:00 25,0 C 39 % 1023 hPa 0,0 l/m 10,1 C 24,5 C 8,5 km/h (2 Bft)
15.08.2004 16:00 25,4 C 37 % 1023 hPa 0,0 l/m 9,7 C 24,8 C 9,3 km/h (2 Bft)
15.08.2004 17:00 25,8 C 36 % 1022 hPa 0,0 l/m 9,4 C 25,1 C 9,9 km/h (2 Bft)
15.08.2004 18:00 25,3 C 35 % 1021 hPa 0,0 l/m 8,8 C 24,6 C 9,9 km/h (2 Bft)
15.08.2004 19:00 23,1 C 41 % 1021 hPa 0,0 l/m 9,2 C 22,7 C 7,7 km/h (2 Bft)
15.08.2004 20:00 19,5 C 59 % 1021 hPa 0,0 l/m 11,2 C 19,5 C 0,0 km/h (0 Bft)
15.08.2004 21:00 17,1 C 68 % 1021 hPa 0,0 l/m 11,1 C 17,1 C 0,0 km/h (0 Bft)
15.08.2004 22:00 15,7 C 73 % 1021 hPa 0,0 l/m 10,9 C 15,7 C 0,0 km/h (0 Bft)
15.08.2004 23:00 14,7 C 79 % 1021 hPa 0,0 l/m 11,1 C 14,7 C 0,0 km/h (0 Bft)
Min-Datum _ 09.08.04 09.08.04 09.08.04 - 09.08.04 09.08.04 09.08.04
_ Min-Zeit 00:00 00:00 00:00 - 00:00 00:00 00:00
Minimum _ 0,0 C 0 % 0 hPa - 0,0 C 0,0 C 0,0 km/h (0 Bft)
Max-Datum _ 12.08.04 12.08.04 14.08.04 12.08.04 12.08.04 12.08.04 12.08.04
_ Max-Zeit 15:53 19:03 22:57 18:25 19:03 15:53 18:23
Maximum _ 31,7 C 98 % 1025 hPa 31,0 l/m 18,3 C 31,7 C 92,9 km/h
SW (10 Bft)
Durchschnitt _ 19,3 C 71 % 1018 hPa #40,0 l/m 13,0 C 18,3 C 8,8 km/h (2 Bft)

Durchschnitt Minimum Temp.18,4 C
Durchschnitt Maximum Temp.20,1 C